Time;durP1;ratioP1;P1;durP2;ratioP2;P2;SDS_P1;SDS_P2;PMS_P1;PMS_P2;Temp;Humidity;BMP_temperature;BMP_pressure;BME280_temperature;BME280_humidity;BME280_pressure;Samples;Min_cycle;Max_cycle;Signal;HPM_P1;HPM_P2
2023/06/21 00:01:35;;;;;;;10.55;8.48;;;;;;;20.10;100.00;98493.69;4838602;29;20102;-83
2023/06/21 00:04:19;;;;;;;9.23;7.35;;;;;;;20.00;100.00;98488.38;4826901;29;20057;-82
2023/06/21 00:07:03;;;;;;;7.80;6.45;;;;;;;20.06;100.00;98499.81;4837300;29;20520;-82
2023/06/21 00:09:48;;;;;;;7.15;5.65;;;;;;;19.96;100.00;98493.47;4838344;29;20048;-82
2023/06/21 00:12:31;;;;;;;7.13;6.00;;;;;;;19.96;100.00;98493.47;4839267;29;20121;-80
2023/06/21 00:15:16;;;;;;;6.55;5.60;;;;;;;19.93;100.00;98487.88;4839917;29;20470;-81
2023/06/21 00:18:00;;;;;;;6.10;5.10;;;;;;;19.73;100.00;98486.81;4840218;29;20125;-81
2023/06/21 00:20:44;;;;;;;6.20;4.82;;;;;;;19.66;100.00;98494.28;4840079;29;20453;-82
2023/06/21 00:23:27;;;;;;;6.13;4.97;;;;;;;19.61;100.00;98497.75;4839055;29;20048;-82
2023/06/21 00:26:11;;;;;;;6.53;5.20;;;;;;;19.55;100.00;98498.78;4839617;29;20049;-81
2023/06/21 00:28:56;;;;;;;7.13;5.30;;;;;;;19.49;100.00;98508.66;4825942;29;20048;-82
2023/06/21 00:31:40;;;;;;;8.05;6.13;;;;;;;19.52;100.00;98505.47;4836108;29;20099;-82
2023/06/21 00:34:24;;;;;;;6.25;5.18;;;;;;;19.48;100.00;98499.09;4839248;29;20106;-83
2023/06/21 00:37:11;;;;;;;6.65;5.35;;;;;;;19.53;100.00;98503.59;4826125;29;20511;-82
2023/06/21 00:39:55;;;;;;;6.45;5.57;;;;;;;19.40;100.00;98502.25;4839043;29;20097;-81
2023/06/21 00:42:39;;;;;;;7.75;6.40;;;;;;;19.44;100.00;98505.97;4835470;29;21370;-82
2023/06/21 00:45:23;;;;;;;8.90;6.90;;;;;;;19.44;100.00;98505.97;4838067;29;20052;-80
2023/06/21 00:48:08;;;;;;;11.77;8.60;;;;;;;19.53;100.00;98511.56;4838701;29;20048;-80
2023/06/21 00:50:52;;;;;;;12.43;9.48;;;;;;;19.58;100.00;98514.25;4839088;29;20048;-81
2023/06/21 00:53:40;;;;;;;15.73;11.02;;;;;;;19.50;100.00;98506.78;4822471;29;20408;-81
2023/06/21 00:56:24;;;;;;;15.00;11.98;;;;;;;19.53;100.00;98519.56;4836941;29;20053;-82
2023/06/21 00:59:09;;;;;;;17.40;11.50;;;;;;;19.82;100.00;98516.38;4837216;29;20102;-81
2023/06/21 01:01:57;;;;;;;15.77;11.50;;;;;;;19.64;100.00;98512.38;4837597;29;20507;-83
2023/06/21 01:04:41;;;;;;;13.23;10.82;;;;;;;19.34;100.00;98520.09;4837083;29;20057;-82
2023/06/21 01:07:31;;;;;;;15.25;11.48;;;;;;;19.31;100.00;98520.63;4837514;29;20094;-83
2023/06/21 01:10:40;;;;;;;13.63;11.27;;;;;;;19.29;100.00;98520.09;4838329;29;20110;-83
2023/06/21 01:13:49;;;;;;;15.80;13.55;;;;;;;19.08;100.00;98527.25;4841059;29;20103;-82
2023/06/21 01:16:39;;;;;;;17.02;12.15;;;;;;;19.10;100.00;98530.44;4841287;29;20452;-81
2023/06/21 01:19:50;;;;;;;17.00;13.77;;;;;;;18.98;100.00;98531.47;4840476;29;20404;-81
2023/06/21 01:22:40;;;;;;;15.82;14.13;;;;;;;18.95;100.00;98534.63;4841200;29;20294;-80
2023/06/21 01:25:57;;;;;;;16.55;13.98;;;;;;;18.80;100.00;98534.59;4827174;29;20584;-81
2023/06/21 01:29:14;;;;;;;18.75;14.85;;;;;;;18.92;100.00;98531.69;4840770;29;20178;-82
2023/06/21 01:32:01;;;;;;;17.92;13.65;;;;;;;18.82;100.00;98532.47;4841979;29;20880;-83
2023/06/21 01:34:46;;;;;;;18.52;13.90;;;;;;;18.85;100.00;98537.25;4841647;29;20141;-82
2023/06/21 01:37:30;;;;;;;15.50;11.45;;;;;;;18.82;100.00;98543.09;4842122;29;20531;-82
2023/06/21 01:40:15;;;;;;;15.70;11.10;;;;;;;18.81;100.00;98533.53;4803094;29;1154812;-82
2023/06/21 01:42:59;;;;;;;13.57;9.90;;;;;;;18.86;100.00;98552.16;4829231;29;20122;-82
2023/06/21 01:45:45;;;;;;;11.10;9.20;;;;;;;18.94;100.00;98545.53;4841335;29;20049;-82
2023/06/21 01:48:33;;;;;;;12.02;9.15;;;;;;;19.03;100.00;98551.16;4840975;29;20075;-81
2023/06/21 01:51:18;;;;;;;12.60;9.45;;;;;;;18.88;100.00;98550.06;4842717;29;20094;-81
2023/06/21 01:54:03;;;;;;;14.45;9.10;;;;;;;18.72;100.00;98548.41;4841941;29;20045;-82
2023/06/21 01:56:52;;;;;;;13.70;9.98;;;;;;;18.81;100.00;98539.66;4843246;29;20059;-81
2023/06/21 01:59:41;;;;;;;13.82;9.73;;;;;;;18.81;100.00;98549.47;4841758;29;20037;-81
2023/06/21 02:02:25;;;;;;;14.73;9.77;;;;;;;18.64;100.00;98544.38;4841605;29;20048;-81
2023/06/21 02:05:10;;;;;;;15.57;9.95;;;;;;;18.66;100.00;98543.03;4841937;29;20073;-81
2023/06/21 02:07:56;;;;;;;15.77;10.43;;;;;;;18.72;100.00;98546.53;4842211;29;20125;-80
2023/06/21 02:10:40;;;;;;;12.43;9.63;;;;;;;18.68;100.00;98546.25;4841752;29;20057;-81
2023/06/21 02:13:26;;;;;;;13.10;10.32;;;;;;;18.54;100.00;98550.44;4836862;29;20049;-82
2023/06/21 02:16:11;;;;;;;14.48;10.25;;;;;;;18.69;100.00;98547.03;4841933;29;20094;-81
2023/06/21 02:18:55;;;;;;;12.63;9.75;;;;;;;18.94;100.00;98556.16;4841493;29;20077;-81
2023/06/21 02:21:40;;;;;;;9.95;8.63;;;;;;;19.37;100.00;98570.13;4826489;29;20584;-80
2023/06/21 02:24:24;;;;;;;9.55;8.05;;;;;;;19.27;100.00;98562.13;4826835;29;20082;-80
2023/06/21 02:27:08;;;;;;;10.48;8.32;;;;;;;19.30;100.00;98561.59;4840454;29;20454;-81
2023/06/21 02:29:53;;;;;;;19.05;9.57;;;;;;;19.23;100.00;98556.53;4842235;29;20510;-81
2023/06/21 02:32:37;;;;;;;12.23;8.10;;;;;;;19.45;100.00;98558.16;4841237;29;20114;-82
2023/06/21 02:35:21;;;;;;;11.48;8.00;;;;;;;18.91;100.00;98554.84;4828832;29;20052;-81
2023/06/21 02:38:06;;;;;;;10.40;8.20;;;;;;;18.75;100.00;98561.16;4842507;29;20045;-82
2023/06/21 02:40:54;;;;;;;13.13;8.98;;;;;;;18.57;100.00;98557.91;4842102;29;20408;-81
2023/06/21 02:43:38;;;;;;;9.55;8.20;;;;;;;18.56;100.00;98558.97;4840935;29;20052;-81
2023/06/21 02:46:22;;;;;;;10.02;8.00;;;;;;;18.38;100.00;98563.66;4837566;29;20044;-82
2023/06/21 02:49:06;;;;;;;10.63;8.73;;;;;;;18.33;100.00;98560.16;4841711;29;20102;-81
2023/06/21 02:51:51;;;;;;;10.13;8.20;;;;;;;18.18;100.00;98563.53;4840884;29;20052;-81
2023/06/21 02:54:35;;;;;;;11.10;8.60;;;;;;;17.94;100.00;98575.28;4839717;29;20143;-80
2023/06/21 02:57:19;;;;;;;13.60;8.93;;;;;;;17.81;100.00;98581.84;4841727;29;20049;-81
2023/06/21 03:00:17;;;;;;;12.57;9.70;;;;;;;17.67;100.00;98575.34;4841330;29;20105;-81
2023/06/21 03:03:02;;;;;;;10.57;9.10;;;;;;;17.59;100.00;98573.16;4826639;29;20044;-81
2023/06/21 03:05:46;;;;;;;11.55;9.88;;;;;;;17.49;100.00;98579.97;4827640;29;20125;-81
2023/06/21 03:08:31;;;;;;;13.68;10.48;;;;;;;17.36;100.00;98577.72;4840031;29;20511;-81
2023/06/21 03:11:15;;;;;;;13.82;10.73;;;;;;;17.26;100.00;98575.78;4840615;29;20103;-81
2023/06/21 03:13:59;;;;;;;12.00;10.13;;;;;;;17.35;100.00;98576.13;4841151;29;20057;-81
2023/06/21 03:16:44;;;;;;;14.80;10.57;;;;;;;17.25;100.00;98580.25;4841106;29;20094;-82
2023/06/21 03:19:28;;;;;;;14.50;10.90;;;;;;;17.34;100.00;98587.78;4841551;29;20606;-81
2023/06/21 03:22:12;;;;;;;11.43;10.15;;;;;;;17.24;100.00;98589.28;4841094;29;20041;-81
2023/06/21 03:24:56;;;;;;;11.38;9.00;;;;;;;17.26;100.00;98591.69;4826322;29;20106;-82
2023/06/21 03:27:40;;;;;;;11.43;8.70;;;;;;;17.19;100.00;98594.53;4841860;29;20048;-81
2023/06/21 03:30:25;;;;;;;12.93;8.48;;;;;;;17.19;100.00;98597.19;4840668;29;20045;-82
2023/06/21 03:33:10;;;;;;;11.95;8.27;;;;;;;17.12;100.00;98600.03;4841051;29;20106;-82
2023/06/21 03:35:54;;;;;;;12.15;8.77;;;;;;;17.09;100.00;98605.81;4841407;29;20052;-82
2023/06/21 03:38:38;;;;;;;10.85;8.15;;;;;;;17.18;100.00;98611.50;4840402;29;20061;-82
2023/06/21 03:41:22;;;;;;;12.45;8.85;;;;;;;17.08;100.00;98616.66;4840147;29;20069;-83
2023/06/21 03:44:06;;;;;;;9.48;7.30;;;;;;;17.04;100.00;98616.38;4840795;29;20049;-82
2023/06/21 03:46:50;;;;;;;10.68;7.43;;;;;;;16.98;100.00;98626.13;4827524;29;20101;-83
2023/06/21 03:49:34;;;;;;;10.52;8.63;;;;;;;16.97;100.00;98631.63;4826916;29;20511;-82
2023/06/21 03:52:18;;;;;;;11.77;8.13;;;;;;;16.87;100.00;98636.81;4839039;29;20630;-82
2023/06/21 03:55:03;;;;;;;9.13;7.80;;;;;;;16.92;100.00;98628.91;4839981;29;20060;-82
2023/06/21 03:57:47;;;;;;;11.95;7.50;;;;;;;17.03;100.00;98637.81;4840953;29;20521;-83
2023/06/21 04:00:31;;;;;;;13.23;7.70;;;;;;;17.03;100.00;98645.78;4838624;29;20061;-82
2023/06/21 04:03:15;;;;;;;10.98;7.75;;;;;;;16.95;100.00;98647.78;4840642;29;20044;-81
2023/06/21 04:05:59;;;;;;;9.07;7.18;;;;;;;17.09;100.00;98650.91;4836367;29;20125;-81
2023/06/21 04:08:42;;;;;;;11.63;6.82;;;;;;;17.21;100.00;98658.72;4839887;29;20409;-82
2023/06/21 04:11:26;;;;;;;8.98;6.72;;;;;;;17.30;100.00;98672.38;4841079;29;20054;-82
2023/06/21 04:14:11;;;;;;;9.75;6.70;;;;;;;17.39;100.00;98675.38;4840677;29;20052;-82
2023/06/21 04:16:56;;;;;;;11.43;6.78;;;;;;;17.39;100.00;98678.03;4838380;29;20102;-81
2023/06/21 04:19:39;;;;;;;8.63;6.30;;;;;;;17.43;100.00;98681.78;4827068;29;20048;-82
2023/06/21 04:22:24;;;;;;;12.65;7.18;;;;;;;18.05;100.00;98679.75;4837408;29;20055;-82
2023/06/21 04:25:09;;;;;;;7.63;5.85;;;;;;;17.87;100.00;98688.06;4839348;29;20064;-82
2023/06/21 04:27:54;;;;;;;9.90;6.38;;;;;;;17.84;100.00;98686.72;4839684;29;20053;-82
2023/06/21 04:30:38;;;;;;;9.05;6.82;;;;;;;18.06;100.00;98689.34;4840005;29;20081;-83
2023/06/21 04:33:22;;;;;;;10.18;7.07;;;;;;;17.91;100.00;98687.31;4840134;29;20553;-83
2023/06/21 04:36:05;;;;;;;10.50;7.35;;;;;;;17.89;100.00;98699.25;4841244;29;20511;-83
2023/06/21 04:38:50;;;;;;;8.70;7.25;;;;;;;17.97;100.00;98696.91;4840008;29;20129;-84
2023/06/21 04:41:36;;;;;;;10.13;7.25;;;;;;;18.12;100.00;98698.97;4818774;29;20551;-81
2023/06/21 04:44:20;;;;;;;14.82;6.82;;;;;;;18.20;100.00;98710.16;4821712;29;20558;-81
2023/06/21 04:47:04;;;;;;;9.52;6.55;;;;;;;18.20;100.00;98704.84;4798502;29;20052;-81
2023/06/21 04:49:53;;;;;;;9.70;6.97;;;;;;;18.35;100.00;98718.28;4821297;29;20105;-81
2023/06/21 04:52:39;;;;;;;10.82;7.72;;;;;;;18.33;100.00;98717.72;4818768;29;20409;-82
2023/06/21 04:55:24;;;;;;;13.98;8.30;;;;;;;18.47;100.00;98719.94;4822035;29;20103;-81
2023/06/21 04:58:09;;;;;;;12.00;8.20;;;;;;;18.49;100.00;98715.97;4813437;29;20073;-80
2023/06/21 05:00:53;;;;;;;9.35;6.50;;;;;;;18.59;100.00;98722.44;4821683;29;20103;-80
2023/06/21 05:03:37;;;;;;;11.60;6.88;;;;;;;18.72;100.00;98721.19;4821339;29;20099;-80
2023/06/21 05:06:24;;;;;;;11.05;6.97;;;;;;;18.97;100.00;98728.53;4819225;29;20057;-82
2023/06/21 05:09:11;;;;;;;12.60;7.40;;;;;;;18.93;100.00;98730.91;4822029;29;20088;-81
2023/06/21 05:11:55;;;;;;;9.50;7.20;;;;;;;18.95;100.00;98725.31;4820563;29;20440;-81
2023/06/21 05:14:39;;;;;;;9.60;6.72;;;;;;;19.02;100.00;98725.91;4819853;29;20041;-81
2023/06/21 05:17:23;;;;;;;9.80;7.32;;;;;;;18.87;100.00;98728.47;4821399;29;20370;-82
2023/06/21 05:20:08;;;;;;;11.65;7.43;;;;;;;19.11;100.00;98728.91;4821312;29;20049;-83
2023/06/21 05:22:54;;;;;;;10.82;7.78;;;;;;;18.79;100.00;98735.06;4821570;29;20091;-83
2023/06/21 05:25:39;;;;;;;10.18;6.75;;;;;;;18.94;100.00;98729.03;4822822;29;20040;-84
2023/06/21 05:28:23;;;;;;;10.63;7.05;;;;;;;19.00;100.00;98733.34;4821866;29;20459;-82
2023/06/21 05:31:07;;;;;;;9.38;7.00;;;;;;;19.12;100.00;98735.81;4819000;29;20138;-81
2023/06/21 05:33:51;;;;;;;10.55;6.57;;;;;;;19.10;100.00;98737.94;4812012;29;20062;-83
2023/06/21 05:36:35;;;;;;;7.90;6.25;;;;;;;19.15;100.00;98740.63;4828908;29;20071;-82
2023/06/21 05:39:19;;;;;;;9.77;6.57;;;;;;;19.09;100.00;98731.00;4821855;29;20041;-82
2023/06/21 05:42:03;;;;;;;8.68;6.32;;;;;;;19.15;100.00;98734.47;4820474;29;20089;-83
2023/06/21 05:44:47;;;;;;;7.18;5.75;;;;;;;19.08;100.00;98740.84;4819274;29;20134;-81
2023/06/21 05:47:31;;;;;;;9.32;5.75;;;;;;;19.14;100.00;98739.00;4821597;29;20033;-80
2023/06/21 05:50:15;;;;;;;;;;;;;;;19.34;100.00;98753.47;4816053;29;20061;-81
2023/06/21 05:52:59;;;;;;;9.15;5.90;;;;;;;19.46;100.00;98750.59;4819366;29;19924;-81
2023/06/21 05:55:46;;;;;;;9.05;5.35;;;;;;;19.52;100.00;98750.34;4832873;29;20134;-80
2023/06/21 05:58:30;;;;;;;7.82;5.75;;;;;;;19.65;100.00;98740.25;4820191;29;20041;-81
2023/06/21 06:01:14;;;;;;;6.53;4.93;;;;;;;19.75;100.00;98750.97;4823057;29;20195;-81
2023/06/21 06:03:57;;;;;;;7.28;5.35;;;;;;;19.80;100.00;98750.97;4815402;29;20046;-82
2023/06/21 06:06:41;;;;;;;7.25;5.03;;;;;;;19.78;100.00;98753.09;4823131;29;20072;-80
2023/06/21 06:09:25;;;;;;;9.15;5.65;;;;;;;19.96;100.00;98751.03;4820260;29;20408;-81
2023/06/21 06:12:09;;;;;;;8.43;5.20;;;;;;;19.89;100.00;98750.47;4822719;29;20049;-82
2023/06/21 06:14:53;;;;;;;8.88;5.88;;;;;;;20.06;100.00;98758.25;4825340;29;20065;-81
2023/06/21 06:17:37;;;;;;;9.55;6.07;;;;;;;20.41;100.00;98754.00;4820888;29;20065;-82
2023/06/21 06:20:21;;;;;;;8.98;6.00;;;;;;;20.47;100.00;98754.81;4823900;29;20392;-81
2023/06/21 06:23:10;;;;;;;7.22;5.05;;;;;;;20.65;100.00;98759.63;4823857;29;20412;-82
2023/06/21 06:25:54;;;;;;;8.60;5.47;;;;;;;20.58;100.00;98759.06;4823855;29;20546;-82
2023/06/21 06:28:38;;;;;;;8.23;5.22;;;;;;;20.62;100.00;98760.13;4820393;29;20541;-83
2023/06/21 06:31:24;;;;;;;10.50;5.70;;;;;;;20.75;100.00;98771.31;4823968;29;20095;-82
2023/06/21 06:34:08;;;;;;;7.45;5.70;;;;;;;20.79;100.00;98765.19;4823494;29;20060;-82
2023/06/21 06:36:52;;;;;;;8.43;5.30;;;;;;;20.83;100.00;98768.13;4822745;29;20068;-82
2023/06/21 06:39:36;;;;;;;8.68;5.22;;;;;;;20.73;100.00;98776.91;4820881;29;20042;-82
2023/06/21 06:42:21;;;;;;;7.95;4.97;;;;;;;20.64;100.00;98790.00;4822601;29;20061;-82
2023/06/21 06:45:06;;;;;;;8.02;4.82;;;;;;;20.62;100.00;98786.00;4828256;29;20080;-81
2023/06/21 06:47:51;;;;;;;6.82;4.88;;;;;;;20.74;100.00;98794.53;4823553;29;20049;-82
2023/06/21 06:50:38;;;;;;;10.50;5.43;;;;;;;20.91;100.00;98799.63;4829205;29;20138;-82
2023/06/21 06:53:22;;;;;;;6.97;5.05;;;;;;;20.87;100.00;98795.91;4818507;29;20045;-85
2023/06/21 06:56:06;;;;;;;9.23;4.93;;;;;;;20.93;100.00;98794.00;4812717;29;20124;-81
2023/06/21 06:58:50;;;;;;;9.10;5.07;;;;;;;20.93;100.00;98802.00;4814894;29;20381;-82
2023/06/21 07:01:34;;;;;;;7.28;4.50;;;;;;;20.94;100.00;98804.41;4816602;29;20470;-82
2023/06/21 07:04:18;;;;;;;6.53;4.65;;;;;;;20.83;100.00;98803.63;4813321;29;20430;-81
2023/06/21 07:07:03;;;;;;;7.55;5.07;;;;;;;20.88;100.00;98805.50;4824113;29;20577;-82
2023/06/21 07:09:47;;;;;;;10.13;5.70;;;;;;;20.81;100.00;98813.75;4813071;29;20049;-81
2023/06/21 07:12:31;;;;;;;8.95;4.93;;;;;;;20.90;100.00;98816.69;4814556;29;20046;-81
2023/06/21 07:15:15;;;;;;;12.82;5.30;;;;;;;20.73;100.00;98819.59;4819153;29;20041;-80
2023/06/21 07:17:59;;;;;;;7.05;4.57;;;;;;;20.76;100.00;98823.59;4818875;29;20122;-81
2023/06/21 07:20:43;;;;;;;6.22;5.25;;;;;;;20.88;100.00;98834.03;4816369;29;20467;-81
2023/06/21 07:23:27;;;;;;;6.38;5.20;;;;;;;20.88;100.00;98821.50;4818150;29;20061;-82
2023/06/21 07:26:11;;;;;;;6.75;5.35;;;;;;;20.98;100.00;98831.34;4813698;29;20058;-82
2023/06/21 07:28:55;;;;;;;8.48;6.35;;;;;;;21.37;100.00;98829.94;4818432;29;20429;-81
2023/06/21 07:31:42;;;;;;;7.25;6.30;;;;;;;21.91;100.00;98836.47;4819502;29;20058;-82
2023/06/21 07:34:26;;;;;;;9.68;5.80;;;;;;;22.22;100.00;98840.84;4831526;29;20058;-83
2023/06/21 07:37:10;;;;;;;8.00;7.15;;;;;;;21.97;100.00;98839.91;4815543;29;20078;-83
2023/06/21 07:39:55;;;;;;;10.15;7.80;;;;;;;22.64;100.00;98844.88;4818458;29;20433;-83
2023/06/21 07:42:39;;;;;;;9.13;6.20;;;;;;;22.42;100.00;98845.25;4822050;29;20053;-83
2023/06/21 07:45:23;;;;;;;7.38;6.57;;;;;;;22.66;100.00;98858.75;4830483;29;20061;-84
2023/06/21 07:48:08;;;;;;;7.90;6.28;;;;;;;22.92;100.00;98855.88;4821606;29;20053;-82
2023/06/21 07:50:52;;;;;;;6.35;5.55;;;;;;;23.34;100.00;98859.00;4826557;29;20127;-84
2023/06/21 07:53:36;;;;;;;6.53;5.30;;;;;;;23.20;100.00;98858.84;4832461;29;20053;-83
2023/06/21 07:56:20;;;;;;;6.45;5.45;;;;;;;23.48;100.00;98861.78;4830344;29;20058;-83
2023/06/21 07:59:04;;;;;;;5.47;4.93;;;;;;;24.09;99.48;98862.16;4822523;29;20455;-83
2023/06/21 08:01:48;;;;;;;5.55;4.47;;;;;;;24.25;96.83;98864.63;4821027;29;20125;-83
2023/06/21 08:04:32;;;;;;;7.80;3.90;;;;;;;24.33;94.83;98861.28;4831675;29;20049;-83
2023/06/21 08:07:16;;;;;;;4.38;3.70;;;;;;;24.45;94.67;98870.78;4822281;29;20110;-84
2023/06/21 08:10:00;;;;;;;8.00;4.03;;;;;;;24.68;94.74;98880.63;4814268;29;20045;-84
2023/06/21 08:12:44;;;;;;;5.40;4.00;;;;;;;24.13;93.57;98877.66;4819992;29;20097;-83
2023/06/21 08:15:28;;;;;;;5.45;3.60;;;;;;;24.53;92.03;98875.47;4822345;29;20107;-83
2023/06/21 08:18:13;;;;;;;6.72;3.90;;;;;;;24.73;91.87;98887.00;4821624;29;20500;-81
2023/06/21 08:20:57;;;;;;;4.80;4.30;;;;;;;24.57;91.50;98881.06;4814115;29;20057;-83
2023/06/21 08:23:41;;;;;;;7.05;4.07;;;;;;;24.26;91.03;98893.03;4832647;29;20057;-85
2023/06/21 08:26:25;;;;;;;5.65;4.15;;;;;;;23.54;92.30;98890.09;4821121;29;20052;-84
2023/06/21 08:29:09;;;;;;;7.03;3.60;;;;;;;23.25;93.09;98898.97;4822141;29;20049;-84
2023/06/21 08:31:53;;;;;;;5.38;3.60;;;;;;;23.21;94.31;98900.59;4812675;29;20052;-83
2023/06/21 08:34:37;;;;;;;7.57;4.05;;;;;;;23.77;93.24;98903.78;4831330;29;20044;-84
2023/06/21 08:37:28;;;;;;;6.15;4.00;;;;;;;23.41;91.90;98906.06;4815696;29;20528;-84
2023/06/21 08:40:15;;;;;;;4.97;4.00;;;;;;;23.57;91.52;98906.69;4821382;29;20409;-84
2023/06/21 08:43:00;;;;;;;5.57;3.80;;;;;;;24.34;90.11;98910.38;4815602;29;20122;-82
2023/06/21 08:45:44;;;;;;;6.35;4.20;;;;;;;24.49;91.28;98902.13;4832854;29;20054;-82
2023/06/21 08:48:32;;;;;;;6.70;4.05;;;;;;;23.88;90.60;98911.72;4818288;29;20058;-83
2023/06/21 08:51:16;;;;;;;5.40;3.90;;;;;;;24.15;91.58;98911.16;4811701;29;20093;-84
2023/06/21 08:54:13;;;;;;;6.45;3.90;;;;;;;23.97;89.95;98920.72;4815532;29;20094;-82
2023/06/21 08:57:17;;;;;;;5.20;4.10;;;;;;;23.85;90.17;98917.66;4808747;29;20407;-84
2023/06/21 09:00:03;;;;;;;4.90;4.40;;;;;;;23.87;91.15;98920.84;4819905;29;20103;-83
2023/06/21 09:03:12;;;;;;;5.55;4.00;;;;;;;23.58;91.41;98925.19;4831470;29;20118;-83
2023/06/21 09:06:09;;;;;;;4.88;4.05;;;;;;;23.85;92.66;98923.03;4819008;29;20409;-80
2023/06/21 09:08:54;;;;;;;5.07;4.40;;;;;;;23.89;90.40;98914.13;4825459;29;20177;-81
2023/06/21 09:11:40;;;;;;;5.82;4.40;;;;;;;24.01;91.15;98919.09;4819581;29;20057;-81
2023/06/21 09:14:31;;;;;;;5.63;3.70;;;;;;;24.03;90.46;98919.63;4817508;29;20059;-83
2023/06/21 09:17:15;;;;;;;8.43;3.90;;;;;;;23.94;89.44;98929.34;4818655;29;20283;-84
2023/06/21 09:20:02;;;;;;;4.63;3.90;;;;;;;24.56;87.64;98928.56;4814271;29;20062;-83
2023/06/21 09:22:46;;;;;;;6.30;4.10;;;;;;;25.30;86.74;98937.13;4819107;29;20110;-81
2023/06/21 09:25:30;;;;;;;5.80;3.90;;;;;;;24.78;85.98;98936.06;4829667;29;20049;-83
2023/06/21 09:28:14;;;;;;;5.93;4.15;;;;;;;24.98;86.25;98949.47;4821025;29;20049;-81
2023/06/21 09:30:59;;;;;;;6.63;4.00;;;;;;;25.05;86.28;98949.88;4826265;29;20394;-81
2023/06/21 09:33:45;;;;;;;6.55;4.10;;;;;;;24.82;84.82;98949.72;4822575;29;20049;-83
2023/06/21 09:36:29;;;;;;;4.93;4.00;;;;;;;25.03;83.15;98942.13;4818939;29;20471;-84
2023/06/21 09:39:15;;;;;;;6.57;4.00;;;;;;;24.79;83.86;98945.72;4827594;29;20553;-86
2023/06/21 09:41:59;;;;;;;6.82;4.20;;;;;;;24.52;84.22;98949.03;4832893;29;20053;-84
2023/06/21 09:44:45;;;;;;;6.80;4.10;;;;;;;24.64;84.93;98957.44;4829448;29;20462;-86
2023/06/21 09:47:30;;;;;;;4.22;3.83;;;;;;;24.88;84.21;98951.22;4843279;29;20068;-86
2023/06/21 09:50:15;;;;;;;4.22;3.75;;;;;;;25.20;82.36;98955.00;4827426;29;20049;-84
2023/06/21 09:52:59;;;;;;;6.72;4.68;;;;;;;25.21;81.84;98963.84;4816173;29;20061;-85
2023/06/21 09:55:46;;;;;;;5.50;4.50;;;;;;;25.40;83.67;98963.81;4829229;29;20806;-85
2023/06/21 09:58:34;;;;;;;7.35;4.22;;;;;;;25.79;79.95;98957.22;4841287;29;20445;-82
2023/06/21 10:01:18;;;;;;;5.00;3.88;;;;;;;25.85;77.73;98967.88;4840256;29;20112;-83
2023/06/21 10:04:10;;;;;;;6.43;4.38;;;;;;;25.51;77.88;98975.22;4841652;29;20523;-81
2023/06/21 10:06:56;;;;;;;5.63;4.22;;;;;;;26.15;78.02;98968.38;4827222;29;20036;-83
2023/06/21 10:09:41;;;;;;;4.97;4.43;;;;;;;26.52;76.41;98974.63;4841335;29;20581;-82
2023/06/21 10:12:25;;;;;;;5.18;4.00;;;;;;;26.94;76.66;98967.25;4840914;29;20094;-82
2023/06/21 10:15:13;;;;;;;8.63;4.88;;;;;;;27.04;76.07;98960.03;4842757;29;20517;-83
2023/06/21 10:17:58;;;;;;;5.93;4.70;;;;;;;26.89;76.34;98974.66;4825606;29;20045;-84
2023/06/21 10:20:42;;;;;;;5.75;4.47;;;;;;;25.97;75.63;98972.75;4838740;29;20084;-84
2023/06/21 10:23:28;;;;;;;5.03;4.53;;;;;;;25.94;75.04;98974.97;4840161;29;20403;-81
2023/06/21 10:26:16;;;;;;;4.95;4.45;;;;;;;25.95;75.82;98971.16;4840872;29;20416;-81
2023/06/21 10:29:03;;;;;;;6.32;4.90;;;;;;;25.96;76.09;98971.97;4838830;29;20393;-83
2023/06/21 10:31:49;;;;;;;7.03;4.38;;;;;;;26.16;74.54;98969.97;4824555;29;20088;-83
2023/06/21 10:34:58;;;;;;;5.95;4.30;;;;;;;26.47;74.55;98974.72;4839903;29;20057;-85
2023/06/21 10:37:48;;;;;;;5.80;4.40;;;;;;;26.65;75.86;98960.34;4839922;29;20090;-83
2023/06/21 10:40:35;;;;;;;5.55;3.95;;;;;;;26.30;74.41;98976.16;4827664;29;20194;-86
2023/06/21 10:43:19;;;;;;;5.43;4.60;;;;;;;25.72;76.10;98969.47;4834848;29;20045;-82
2023/06/21 10:46:05;;;;;;;7.30;4.10;;;;;;;25.23;76.66;98967.84;4839745;29;20106;-84
2023/06/21 10:48:51;;;;;;;5.57;4.43;;;;;;;24.99;77.68;98969.88;4841915;29;20110;-83
2023/06/21 10:51:40;;;;;;;7.60;4.57;;;;;;;24.84;78.71;98965.50;4842468;29;20106;-82
2023/06/21 10:54:26;;;;;;;5.80;4.32;;;;;;;24.55;77.30;98975.25;4841558;29;20045;-82
2023/06/21 10:57:12;;;;;;;5.88;4.35;;;;;;;24.76;75.74;98980.38;4841298;29;20125;-83
2023/06/21 11:00:06;;;;;;;5.40;4.15;;;;;;;25.00;75.52;98966.88;4840610;29;20053;-82
2023/06/21 11:02:51;;;;;;;5.70;3.93;;;;;;;25.20;76.10;98968.44;4825966;29;20094;-85
2023/06/21 11:05:35;;;;;;;5.88;4.10;;;;;;;25.66;75.18;98980.31;4824757;29;20063;-82
2023/06/21 11:08:30;;;;;;;5.55;4.32;;;;;;;26.08;73.42;98974.94;4827548;29;20497;-84
2023/06/21 11:11:36;;;;;;;4.60;4.20;;;;;;;26.42;72.20;98977.53;4840157;29;20073;-85
2023/06/21 11:14:28;;;;;;;7.65;3.95;;;;;;;26.96;73.96;98968.84;4840021;29;20045;-85
2023/06/21 11:17:14;;;;;;;5.80;4.20;;;;;;;27.26;71.06;98974.56;4838614;29;20041;-83
2023/06/21 11:20:18;;;;;;;5.25;4.50;;;;;;;27.32;73.66;98976.84;4838606;29;20121;-84
2023/06/21 11:23:09;;;;;;;6.60;4.38;;;;;;;27.46;72.95;98968.66;4837768;29;20057;-83
2023/06/21 11:26:02;;;;;;;9.23;4.85;;;;;;;27.14;70.48;98970.56;4834277;29;20400;-83
2023/06/21 11:28:47;;;;;;;4.72;4.25;;;;;;;27.50;70.01;98966.94;4829749;29;20696;-84
2023/06/21 11:31:38;;;;;;;6.60;4.40;;;;;;;28.39;72.28;98969.97;4840130;29;20052;-83
2023/06/21 11:34:29;;;;;;;6.72;4.47;;;;;;;29.09;70.11;98961.91;4839791;29;20106;-83
2023/06/21 11:37:44;;;;;;;4.50;4.10;;;;;;;28.81;67.75;98964.94;4840924;29;20110;-84
2023/06/21 11:40:28;;;;;;;6.03;4.18;;;;;;;29.40;67.56;98965.50;4839635;29;20118;-83
2023/06/21 11:43:17;;;;;;;6.15;4.35;;;;;;;29.37;65.78;98972.34;4826630;29;20048;-83
2023/06/21 11:46:03;;;;;;;5.20;4.57;;;;;;;30.07;64.84;98968.59;4840328;29;20385;-83
2023/06/21 11:48:47;;;;;;;5.72;4.28;;;;;;;30.16;63.88;98968.56;4838896;29;20052;-83
2023/06/21 11:51:32;;;;;;;6.90;5.03;;;;;;;29.70;63.23;98981.78;4839017;29;20045;-84
2023/06/21 11:54:30;;;;;;;4.72;4.30;;;;;;;30.33;62.96;98968.44;4826219;29;20133;-84
2023/06/21 11:57:14;;;;;;;8.70;4.40;;;;;;;29.85;61.32;98980.44;4840378;29;20115;-83
2023/06/21 11:59:59;;;;;;;4.10;3.67;;;;;;;29.42;60.23;98971.41;4838619;29;20117;-83
2023/06/21 12:02:43;;;;;;;5.07;4.43;;;;;;;29.02;64.17;98972.41;4839837;29;20052;-83
2023/06/21 12:05:51;;;;;;;5.78;4.30;;;;;;;28.80;66.16;98982.25;4839680;29;20125;-84
2023/06/21 12:08:37;;;;;;;4.75;4.18;;;;;;;28.52;65.99;98993.34;4820694;29;21849;-81
2023/06/21 12:11:25;;;;;;;5.50;4.57;;;;;;;28.36;65.27;98990.28;4835965;29;20446;-86
2023/06/21 12:14:09;;;;;;;5.00;4.43;;;;;;;27.98;65.65;98986.22;4840873;29;20080;-84
2023/06/21 12:16:53;;;;;;;4.80;4.40;;;;;;;27.99;66.88;98987.81;4838416;29;20073;-81
2023/06/21 12:19:37;;;;;;;5.22;4.72;;;;;;;27.60;66.03;98992.09;4840344;29;20048;-85
2023/06/21 12:22:22;;;;;;;6.05;5.28;;;;;;;26.78;67.81;98999.06;4839731;29;20429;-84
2023/06/21 12:25:06;;;;;;;7.28;4.50;;;;;;;26.01;70.45;99025.66;4840134;29;20575;-85
2023/06/21 12:27:55;;;;;;;8.52;4.65;;;;;;;24.62;77.10;99029.38;4840231;29;20121;-84
2023/06/21 12:30:48;;;;;;;13.90;6.60;;;;;;;33.13;100.00;99084.25;4839964;29;20065;-83
2023/06/21 12:33:36;;;;;;;8.98;5.40;;;;;;;32.40;100.00;99046.00;4838087;29;20049;-83
2023/06/21 12:36:26;;;;;;;9.32;6.20;;;;;;;33.31;84.67;99043.16;4840201;29;20125;-83
2023/06/21 12:39:12;;;;;;;9.73;5.53;;;;;;;33.37;78.47;99040.97;4838354;29;20144;-83
2023/06/21 12:41:58;;;;;;;8.27;5.32;;;;;;;32.78;73.01;99049.44;4844838;29;20106;-83
2023/06/21 12:44:43;;;;;;;6.07;4.18;;;;;;;32.71;71.92;99049.22;4840546;29;20053;-84
2023/06/21 12:47:27;;;;;;;5.88;4.25;;;;;;;32.82;74.15;99055.78;4838778;29;20072;-84
2023/06/21 12:50:11;;;;;;;6.78;4.45;;;;;;;32.30;71.61;99046.44;4840098;29;20053;-83
2023/06/21 12:52:59;;;;;;;6.95;4.45;;;;;;;32.03;72.34;99044.09;4839097;29;20080;-84